Aérodrome :
LOGIN :

S'inscrire | Disclaimer

   EN    FR    IT 

 










Légende :    VFR   VFR Marginal   IFR   IFR Intensif   IFR Très Intensif
Visi : 
Plafond : 
>= 8 km
>= 3000ft
5 à 8 km
1000 à 3000 ft
1500m à 5 km
500 à 1000 ft
800 à 1500m
200 à 500 ft
< 800m
< 200 ft
Symboles :   Orages  Brouillard  Fortes neiges  Fortes précipitations  Vent > 20 kt
SIGMETs :   Divers  Orages  Givrage  Turbulence  Onde Orograph.  Cendres Volcan.







- Altitude de l'aérodrome : 157 ft
- Code IATA : LIL
- Voir les cartes d'approche


LFQQ - Lille Lesquin

METARs EXPIRÉS :
  • 241430Z AUTO 25012KT 9999 BKN027 OVC035 21/14 Q1016 NOSIG
  • 241400Z AUTO 25012KT 9999 BKN028 OVC033 20/14 Q1016 TEMPO 26015G25KT
  • 241330Z AUTO 25012KT 9999 OVC029 20/14 Q1016 TEMPO 26015G25KT
  • 241300Z AUTO 25012KT 9999 BKN024 OVC033 20/14 Q1016 TEMPO 26015G25KT
  • 241230Z AUTO 25013KT 9999 BKN022 BKN027 OVC034 20/14 Q1016 TEMPO 26015G25KT
  • 241200Z AUTO 25017KT 9999 OVC022 19/13 Q1017 TEMPO 26015G25KT

Prévision TAF périmée.
ATIS : +33 3 20 16 19 54
Pas de NOTAMs connus pour ce terrain.



MET'MAP, la Météo Aéronautique d'un coup d'oeil ! - Copyright ORBIFLY Décembre 2007 - Disclaimer

ORBIFLY MET'MAP TEAM :

Programmation & Développement : Alexandra Zaïnal
Conception & Développement : Baudouin d'Aumeries
Co-Programmation & Développement : Marc-Olivier Méhu
Soutien technique & logistique : Manuel Goepfert

Contact : metmap@orbifly.com




SOURCES & CREDITS :

   NOAA